Avonlea, Canada
Current Conditions -  °F | °C
As of 8:27 PM on Saturday 20 Dec 2014 (Local Time) from CYQR Reporting Station
Moderate Fog Moderate Fog  
Wind Chill: 21°   Ceiling: 200
Heat Index: 21°   Visibility: 0.12mi
Dew Point: 19°   Wind: 2mph
Humidity: 93%   Direction: 210°SSW
Pressure: 29.68"   Gusts: NA
Location:  50.02°N, 105.07°W
Report Text: CYQR 210227Z 21002KT 1/8SM R13/1400FT/N FZFG BKN002 M06/M07 A2968 RMK FG5ST2 SLP086
Loading
Personal Weather Stations






























Interactive Weather Map New forecast layout! Learn more

10-Day Weather Forecast

Advertisements
Track Severe Weather on mobile